Time;durP1;ratioP1;P1;durP2;ratioP2;P2;SDS_P1;SDS_P2;PMS_P1;PMS_P2;Temp;Humidity;BMP_temperature;BMP_pressure;BME280_temperature;BME280_humidity;BME280_pressure;Samples;Min_cycle;Max_cycle;Signal;HPM_P1;HPM_P2
2023/09/21 00:03:06;;;;;;;;;;;;;;;;;;;;;
2023/09/21 00:06:03;;;;;;;5.43;1.80;;;21.70;99.90;;;;;;7268724;19;20211;-89
2023/09/21 00:08:56;;;;;;;6.17;1.80;;;21.80;99.90;;;;;;7271939;19;20212;-90
2023/09/21 00:11:35;;;;;;;5.90;1.70;;;21.80;99.90;;;;;;7289425;19;20618;-90
2023/09/21 00:14:45;;;;;;;7.90;1.70;;;21.80;99.90;;;;;;7197833;19;2004512;-89
2023/09/21 00:17:44;;;;;;;7.53;1.73;;;21.70;99.90;;;;;;7188424;19;2004452;-91
2023/09/21 00:20:51;;;;;;;5.33;1.90;;;21.80;99.90;;;;;;7267734;19;20184;-90
2023/09/21 00:23:55;;;;;;;5.63;1.77;;;21.80;99.90;;;;;;7230558;19;2004622;-90
2023/09/21 00:27:28;;;;;;;5.63;1.87;;;21.80;99.90;;;;;;7291249;19;20180;-91
2023/09/21 00:33:51;;;;;;;6.03;1.60;;;21.80;99.90;;;;;;7082569;19;2020334;-88
2023/09/21 00:39:53;;;;;;;6.80;2.10;;;21.70;99.90;;;;;;7182838;19;2004120;-89
2023/09/21 00:46:30;;;;;;;6.20;1.80;;;21.60;99.90;;;;;;7185041;19;2004316;-90
2023/09/21 00:49:32;;;;;;;5.23;1.80;;;21.50;99.90;;;;;;7274989;19;20512;-90
2023/09/21 00:53:04;;;;;;;5.47;1.77;;;21.50;99.90;;;;;;7187663;19;2004251;-89
2023/09/21 00:56:02;;;;;;;5.73;1.80;;;21.50;99.90;;;;;;7082135;19;2004624;-90
2023/09/21 00:59:13;;;;;;;5.57;2.07;;;21.50;99.90;;;;;;7289123;19;20193;-90
2023/09/21 01:02:22;;;;;;;6.07;1.87;;;21.40;99.90;;;;;;7002402;19;2004417;-89
2023/09/21 01:05:52;;;;;;;7.97;1.83;;;21.40;99.90;;;;;;7289220;19;20197;-89
2023/09/21 01:12:25;;;;;;;7.00;2.20;;;21.30;99.90;;;;;;6980953;19;2004459;-89
2023/09/21 01:15:48;;;;;;;5.53;1.97;;;21.20;99.90;;;;;;7309969;19;20191;-88
2023/09/21 01:22:23;;;;;;;4.77;1.83;;;21.20;99.90;;;;;;7104029;19;2004372;-88
2023/09/21 01:24:58;;;;;;;4.53;1.80;;;21.20;99.90;;;;;;7183282;19;2004614;-89
2023/09/21 01:27:42;;;;;;;6.40;1.80;;;21.20;99.90;;;;;;7308693;19;20705;-89
2023/09/21 01:30:18;;;;;;;5.23;1.73;;;21.10;99.90;;;;;;7185805;19;2004513;-89
2023/09/21 01:32:50;;;;;;;8.17;1.83;;;21.20;99.90;;;;;;7309746;19;20203;-89
2023/09/21 01:42:33;;;;;;;5.13;1.77;;;21.30;99.90;;;;;;7079540;19;2004356;-91
2023/09/21 01:45:57;;;;;;;4.63;1.90;;;21.20;99.90;;;;;;7207975;19;2004543;-90
2023/09/21 01:49:15;;;;;;;7.43;1.90;;;21.20;99.90;;;;;;7081365;19;2004539;-89
2023/09/21 01:52:12;;;;;;;6.80;2.10;;;21.20;99.90;;;;;;7187685;19;2004438;-90
2023/09/21 01:56:03;;;;;;;;;;;;;;;;;;;;;
2023/09/21 01:58:46;;;;;;;6.00;2.20;;;21.00;99.90;;;;;;7083664;19;2004406;-90
2023/09/21 02:02:19;;;;;;;7.70;2.10;;;21.00;99.90;;;;;;7184910;19;2020486;-91
2023/09/21 02:05:46;;;;;;;;;;;;;;;;;;;;;
2023/09/21 02:08:40;;;;;;;6.20;1.90;;;21.00;99.90;;;;;;7184889;19;2004738;-89
2023/09/21 02:11:49;;;;;;;3.80;1.90;;;21.00;99.90;;;;;;7190156;19;2004569;-91
2023/09/21 02:15:01;;;;;;;5.37;2.10;;;20.90;99.90;;;;;;7184962;19;2004138;-90
2023/09/21 02:17:44;;;;;;;4.70;1.83;;;21.00;99.90;;;;;;7101776;19;2020419;-90
2023/09/21 02:20:54;;;;;;;;;;;;;;;;;;;;;
2023/09/21 02:23:46;;;;;;;5.43;1.60;;;21.00;99.90;;;;;;7186317;19;2004325;-90
2023/09/21 02:27:10;;;;;;;6.63;1.87;;;21.10;99.90;;;;;;7185067;19;2004580;-89
2023/09/21 02:30:24;;;;;;;;;;;;;;;;;;;;;
2023/09/21 02:33:00;;;;;;;7.70;2.10;;;21.20;99.90;;;;;;7185083;19;2004321;-91
2023/09/21 02:35:55;;;;;;;5.00;2.00;;;21.20;99.90;;;;;;7285973;19;20201;-88
2023/09/21 02:38:37;;;;;;;6.43;2.13;;;21.20;99.90;;;;;;7186027;19;2004146;-89
2023/09/21 02:42:10;;;;;;;6.50;2.23;;;21.20;99.90;;;;;;7184637;19;2004295;-91
2023/09/21 02:45:34;;;;;;;7.40;2.10;;;21.20;99.90;;;;;;7189598;19;2020342;-90
2023/09/21 02:48:31;;;;;;;6.20;2.03;;;21.30;99.90;;;;;;7287347;19;20194;-90
2023/09/21 02:51:56;;;;;;;4.37;2.13;;;21.30;99.90;;;;;;7103789;19;2004447;-91
2023/09/21 02:54:48;;;;;;;4.30;1.80;;;21.20;99.90;;;;;;7186236;19;2004340;-89
2023/09/21 02:58:21;;;;;;;4.43;1.63;;;21.20;99.90;;;;;;7312059;19;20304;-92
2023/09/21 03:01:15;;;;;;;5.70;1.80;;;21.20;99.90;;;;;;6984815;19;2004579;-90
2023/09/21 03:04:32;;;;;;;5.23;1.93;;;21.10;99.90;;;;;;7294485;19;20192;-90
2023/09/21 03:11:39;;;;;;;7.43;2.20;;;21.10;99.90;;;;;;7086198;19;2004464;-89
2023/09/21 03:15:14;;;;;;;3.97;1.67;;;21.10;99.90;;;;;;7181285;19;2004449;-89
2023/09/21 03:18:13;;;;;;;6.13;2.10;;;21.10;99.90;;;;;;7088101;19;2020548;-89
2023/09/21 03:21:49;;;;;;;6.97;1.83;;;21.10;99.90;;;;;;7170541;19;2004546;-90
2023/09/21 03:24:54;;;;;;;5.20;1.97;;;21.00;99.90;;;;;;7180243;19;2004482;-90
2023/09/21 03:27:30;;;;;;;7.80;2.43;;;21.00;99.90;;;;;;7316555;19;20198;-90
2023/09/21 03:30:18;;;;;;;6.13;2.00;;;21.00;99.90;;;;;;7316328;19;20221;-90
2023/09/21 03:33:05;;;;;;;4.90;1.73;;;21.10;99.90;;;;;;7191334;19;2004070;-89
2023/09/21 03:35:39;;;;;;;4.80;2.10;;;21.00;99.90;;;;;;7294736;19;20198;-89
2023/09/21 03:38:18;;;;;;;8.53;2.13;;;20.90;99.90;;;;;;7286102;19;20257;-89
2023/09/21 03:40:44;;;;;;;7.67;2.23;;;20.90;99.90;;;;;;7293033;19;20212;-90
2023/09/21 03:43:15;;;;;;;8.97;2.47;;;20.80;99.90;;;;;;7292923;19;20203;-89
2023/09/21 03:45:45;;;;;;;7.47;2.30;;;20.70;99.90;;;;;;7294231;19;20206;-90
2023/09/21 03:48:35;;;;;;;7.50;2.00;;;20.50;99.90;;;;;;7293910;19;20698;-89
2023/09/21 03:51:25;;;;;;;7.33;2.27;;;20.40;99.90;;;;;;7270695;19;20190;-90
2023/09/21 03:54:09;;;;;;;6.57;2.20;;;20.20;99.90;;;;;;7292438;19;20196;-89
2023/09/21 03:56:39;;;;;;;8.50;2.30;;;19.90;99.90;;;;;;7276066;19;20278;-89
2023/09/21 03:59:12;;;;;;;7.30;2.33;;;19.80;99.90;;;;;;7293133;19;20216;-88
2023/09/21 04:04:37;;;;;;;8.60;2.43;;;19.70;99.90;;;;;;7289399;19;20515;-90
2023/09/21 04:07:08;;;;;;;4.97;2.20;;;19.60;99.90;;;;;;7280915;19;20655;-89
2023/09/21 04:09:50;;;;;;;10.53;2.33;;;19.50;99.90;;;;;;7292581;19;20200;-90
2023/09/21 04:12:32;;;;;;;;;;;;;;;;;;;;;
2023/09/21 04:15:18;;;;;;;8.20;2.27;;;19.60;99.90;;;;;;7292607;19;20195;-89
2023/09/21 04:17:54;;;;;;;8.60;2.80;;;19.50;99.90;;;;;;7190297;19;2004423;-88
2023/09/21 04:20:34;;;;;;;5.23;2.10;;;19.70;99.90;;;;;;7292735;19;20189;-90
2023/09/21 04:23:11;;;;;;;8.93;2.50;;;19.60;99.90;;;;;;7291749;19;20227;-88
2023/09/21 04:26:04;;;;;;;7.57;2.53;;;19.60;99.90;;;;;;7187535;19;2004437;-89
2023/09/21 04:28:40;;;;;;;7.03;2.33;;;19.30;99.90;;;;;;7290932;19;20193;-89
2023/09/21 04:31:09;;;;;;;7.07;2.80;;;19.10;99.90;;;;;;7275378;19;20240;-90
2023/09/21 04:33:43;;;;;;;8.30;2.73;;;18.90;99.90;;;;;;7291982;19;20195;-89
2023/09/21 04:39:13;;;;;;;7.20;2.67;;;18.50;99.90;;;;;;7291148;19;20186;-88
2023/09/21 04:41:44;;;;;;;5.73;2.67;;;18.40;99.90;;;;;;7189097;19;2004410;-89
2023/09/21 04:44:36;;;;;;;7.30;2.60;;;18.30;99.90;;;;;;7314065;19;20192;-89
2023/09/21 04:50:57;;;;;;;8.33;3.03;;;18.10;99.90;;;;;;7411988;19;20152;-93
2023/09/21 04:53:59;;;;;;;8.80;3.37;;;18.10;99.90;;;;;;7372338;19;20193;-93
2023/09/21 05:03:38;;;;;;;8.47;3.20;;;18.00;99.90;;;;;;7070773;19;2004583;-92
2023/09/21 05:09:23;;;;;;;10.17;3.60;;;18.00;99.90;;;;;;7170222;19;2004306;-90
2023/09/21 05:12:03;;;;;;;9.27;3.30;;;18.00;99.90;;;;;;7294080;19;20239;-92
2023/09/21 05:14:31;;;;;;;8.57;3.10;;;18.00;99.90;;;;;;7295173;19;20244;-91
2023/09/21 05:17:18;;;;;;;7.23;2.93;;;18.00;99.90;;;;;;7293593;19;20184;-89
2023/09/21 05:19:49;;;;;;;8.25;3.58;;;18.00;99.90;;;;;;7188331;19;2004453;-89
2023/09/21 05:22:20;;;;;;;6.10;2.87;;;17.90;99.90;;;;;;7293456;19;20244;-91
2023/09/21 05:24:50;;;;;;;9.07;3.43;;;17.90;99.90;;;;;;7291791;19;20324;-91
2023/09/21 05:27:39;;;;;;;8.30;3.60;;;17.90;99.90;;;;;;7296278;19;20210;-91
2023/09/21 05:30:22;;;;;;;8.17;3.27;;;18.00;99.90;;;;;;7291994;19;20199;-91
2023/09/21 05:36:13;;;;;;;8.47;3.63;;;18.10;99.90;;;;;;7082867;19;2004458;-89
2023/09/21 05:38:56;;;;;;;11.73;4.03;;;18.10;99.90;;;;;;7288736;19;20233;-89
2023/09/21 05:41:36;;;;;;;7.77;3.20;;;18.10;99.90;;;;;;7279990;19;20291;-89
2023/09/21 05:44:28;;;;;;;12.03;4.10;;;18.10;99.90;;;;;;7187035;19;2004368;-90
2023/09/21 05:47:14;;;;;;;10.33;3.70;;;18.00;99.90;;;;;;7184898;19;2004590;-87
2023/09/21 05:49:45;;;;;;;12.17;4.07;;;17.90;99.90;;;;;;7285222;19;20185;-89
2023/09/21 05:52:35;;;;;;;7.63;3.30;;;17.90;99.90;;;;;;7286135;19;20191;-86
2023/09/21 05:55:06;;;;;;;9.93;3.97;;;17.90;99.90;;;;;;7286127;19;20194;-87
2023/09/21 05:57:34;;;;;;;8.43;3.57;;;17.80;99.90;;;;;;7287384;19;20193;-88
2023/09/21 06:00:11;;;;;;;13.20;4.43;;;17.70;99.90;;;;;;7287707;19;20189;-88
2023/09/21 06:02:44;;;;;;;9.47;4.40;;;17.70;99.90;;;;;;7185206;19;2004475;-87
2023/09/21 06:05:11;;;;;;;11.20;4.17;;;17.80;99.90;;;;;;7287887;19;20189;-87
2023/09/21 06:07:41;;;;;;;9.93;3.73;;;17.80;99.90;;;;;;7287378;19;20291;-88
2023/09/21 06:10:11;;;;;;;10.33;3.93;;;17.90;99.90;;;;;;7285321;19;20646;-89
2023/09/21 06:12:51;;;;;;;9.77;3.80;;;17.90;99.90;;;;;;7285175;19;20188;-88
2023/09/21 06:15:25;;;;;;;6.90;3.90;;;18.00;99.90;;;;;;7284316;19;20207;-87
2023/09/21 06:18:00;;;;;;;9.97;4.17;;;18.00;99.90;;;;;;7275059;19;20189;-87
2023/09/21 06:20:31;;;;;;;8.80;3.80;;;18.20;99.90;;;;;;7287759;19;20538;-87
2023/09/21 06:23:00;;;;;;;11.80;3.93;;;18.20;99.90;;;;;;7285744;19;20196;-87
2023/09/21 06:25:42;;;;;;;10.13;4.00;;;18.20;99.90;;;;;;7275016;19;20180;-88
2023/09/21 06:28:21;;;;;;;7.97;3.57;;;18.30;99.90;;;;;;7291112;19;20219;-88
2023/09/21 06:30:53;;;;;;;3.53;1.60;;;18.50;99.90;;;;;;7293364;19;20532;-87
2023/09/21 06:33:23;;;;;;;5.07;1.40;;;18.60;99.90;;;;;;7293778;19;20259;-88
2023/09/21 06:35:55;;;;;;;3.97;1.40;;;18.50;99.90;;;;;;7291816;19;20204;-88
2023/09/21 06:38:28;;;;;;;5.77;1.90;;;18.50;99.90;;;;;;7293946;19;20691;-90
2023/09/21 06:41:03;;;;;;;4.37;2.23;;;18.30;99.90;;;;;;7292859;19;20199;-89
2023/09/21 06:43:30;;;;;;;4.37;1.90;;;18.10;99.90;;;;;;7294558;19;20237;-88
2023/09/21 06:45:58;;;;;;;4.50;1.50;;;18.10;99.90;;;;;;7293801;19;20202;-89
2023/09/21 06:48:33;;;;;;;9.80;1.90;;;18.10;99.90;;;;;;7291444;19;20201;-88
2023/09/21 06:51:09;;;;;;;8.83;2.07;;;18.10;99.90;;;;;;7292815;19;20598;-89
2023/09/21 06:53:43;;;;;;;6.63;2.27;;;18.00;99.90;;;;;;7285878;19;20660;-89
2023/09/21 06:59:14;;;;;;;7.17;1.90;;;17.90;99.90;;;;;;7269065;19;20197;-88
2023/09/21 07:01:47;;;;;;;4.73;1.70;;;17.80;99.90;;;;;;7291990;19;20196;-88
2023/09/21 07:04:25;;;;;;;5.00;1.97;;;17.70;99.90;;;;;;7292422;19;20212;-88
2023/09/21 07:07:04;;;;;;;5.30;2.07;;;17.60;99.90;;;;;;7293182;19;20587;-89
2023/09/21 07:09:44;;;;;;;6.67;1.90;;;17.60;99.90;;;;;;7287592;19;20188;-88
2023/09/21 07:12:39;;;;;;;5.43;1.77;;;17.70;99.90;;;;;;7189180;19;2004977;-88
2023/09/21 07:15:23;;;;;;;4.07;1.43;;;17.80;99.90;;;;;;7292683;19;20229;-88
2023/09/21 07:18:05;;;;;;;4.57;1.70;;;17.70;99.90;;;;;;7188097;19;2004355;-87
2023/09/21 07:20:43;;;;;;;4.77;1.87;;;17.70;99.90;;;;;;7286702;19;20226;-85
2023/09/21 07:23:09;;;;;;;5.53;1.70;;;17.80;99.90;;;;;;7271317;19;20192;-85
2023/09/21 07:25:41;;;;;;;4.03;1.60;;;18.00;99.90;;;;;;7315299;19;20762;-89
2023/09/21 07:28:18;;;;;;;4.60;1.70;;;18.10;99.90;;;;;;7269829;19;20641;-89
2023/09/21 07:30:53;;;;;;;6.17;1.63;;;18.10;99.90;;;;;;7293019;19;20191;-89
2023/09/21 07:33:26;;;;;;;4.63;1.73;;;18.00;99.90;;;;;;7293172;19;20302;-89
2023/09/21 07:38:58;;;;;;;6.93;2.00;;;18.00;99.90;;;;;;7189687;19;2004147;-88
2023/09/21 07:41:30;;;;;;;7.93;2.47;;;18.00;99.90;;;;;;7291919;19;20200;-88
2023/09/21 07:44:11;;;;;;;8.70;2.30;;;18.00;99.90;;;;;;7291750;19;20534;-87
2023/09/21 07:46:40;;;;;;;10.27;3.20;;;17.90;99.90;;;;;;7269828;19;20629;-87
2023/09/21 07:49:13;;;;;;;5.60;2.17;;;17.90;99.90;;;;;;7296912;19;20247;-86
2023/09/21 07:51:55;;;;;;;4.70;1.77;;;17.90;99.90;;;;;;7292346;19;20189;-89
2023/09/21 07:54:29;;;;;;;8.03;2.20;;;17.70;99.90;;;;;;7291699;19;20203;-88
2023/09/21 07:57:00;;;;;;;5.20;2.13;;;17.60;99.90;;;;;;7291578;19;20205;-88
2023/09/21 07:59:37;;;;;;;6.30;2.30;;;17.50;99.90;;;;;;7291435;19;20259;-87
2023/09/21 08:02:18;;;;;;;7.43;2.63;;;17.50;99.90;;;;;;7293659;19;20189;-88
2023/09/21 08:05:03;;;;;;;;;;;;;;;;;;;;;
2023/09/21 08:07:45;;;;;;;5.60;2.50;;;17.50;99.90;;;;;;7293357;19;20237;-88
2023/09/21 08:10:26;;;;;;;6.07;2.70;;;17.60;99.90;;;;;;7187918;19;2004524;-88
2023/09/21 08:12:54;;;;;;;5.73;2.70;;;17.60;99.90;;;;;;7290889;19;20200;-88
2023/09/21 08:15:28;;;;;;;5.93;2.40;;;17.60;99.90;;;;;;7290213;19;20198;-89
2023/09/21 08:18:00;;;;;;;6.57;2.70;;;17.70;99.90;;;;;;7291178;19;20204;-89
2023/09/21 08:20:28;;;;;;;6.83;2.90;;;17.90;99.90;;;;;;7291988;19;20200;-88
2023/09/21 08:23:46;;;;;;;7.10;2.73;;;17.80;99.90;;;;;;7289363;19;20226;-87
2023/09/21 08:26:19;;;;;;;5.93;2.53;;;17.90;99.90;;;;;;7106568;19;2004500;-88
2023/09/21 08:28:48;;;;;;;6.73;2.60;;;18.00;99.90;;;;;;7289376;19;20197;-89
2023/09/21 08:31:22;;;;;;;7.13;2.87;;;17.90;99.90;;;;;;7288575;19;20194;-89
2023/09/21 08:33:49;;;;;;;6.17;2.47;;;18.00;99.90;;;;;;7289262;19;20216;-89
2023/09/21 08:36:16;;;;;;;7.40;2.50;;;18.20;99.90;;;;;;7289807;19;20189;-88
2023/09/21 08:38:47;;;;;;;8.47;2.67;;;18.30;99.90;;;;;;7289952;19;20199;-88
2023/09/21 08:41:14;;;;;;;5.57;2.23;;;18.40;99.90;;;;;;7289453;19;20551;-88
2023/09/21 08:43:47;;;;;;;4.07;1.83;;;18.50;99.90;;;;;;7290959;19;20286;-90
2023/09/21 08:46:16;;;;;;;6.30;2.27;;;18.60;99.90;;;;;;7291368;19;20529;-89
2023/09/21 08:48:59;;;;;;;6.50;2.27;;;18.80;99.90;;;;;;7287477;19;20215;-87
2023/09/21 08:51:33;;;;;;;8.33;2.13;;;18.80;99.90;;;;;;7290947;19;20445;-89
2023/09/21 08:54:40;;;;;;;;;;;;;;;;;;;;;
2023/09/21 08:57:18;;;;;;;6.63;2.27;;;18.90;99.90;;;;;;7177235;19;2004437;-89
2023/09/21 08:59:57;;;;;;;6.23;2.07;;;19.10;99.90;;;;;;7289778;19;20195;-89
2023/09/21 09:02:30;;;;;;;4.53;2.07;;;19.20;99.90;;;;;;7290439;19;20200;-88
2023/09/21 09:05:20;;;;;;;6.90;2.30;;;19.30;99.90;;;;;;7292057;19;20188;-88
2023/09/21 09:08:03;;;;;;;6.73;2.43;;;19.40;99.90;;;;;;7207333;19;2004241;-90
2023/09/21 09:10:29;;;;;;;6.63;2.30;;;19.50;99.90;;;;;;7288254;19;20248;-90
2023/09/21 09:13:09;;;;;;;5.90;2.47;;;19.60;99.90;;;;;;7289373;19;20215;-89
2023/09/21 09:15:45;;;;;;;6.67;2.53;;;19.50;99.90;;;;;;7287459;19;20218;-90
2023/09/21 09:18:36;;;;;;;4.03;2.20;;;19.20;99.90;;;;;;7311809;19;20728;-89
2023/09/21 09:21:44;;;;;;;6.03;2.23;;;19.10;99.90;;;;;;7074169;19;2004784;-88
2023/09/21 09:24:50;;;;;;;8.83;2.20;;;19.10;99.90;;;;;;7268710;19;20188;-88
2023/09/21 09:27:24;;;;;;;6.97;2.03;;;19.10;99.90;;;;;;7186093;19;2004439;-89
2023/09/21 09:30:11;;;;;;;4.67;2.10;;;19.00;99.90;;;;;;7289658;19;20191;-89
2023/09/21 09:32:47;;;;;;;5.57;2.23;;;19.10;99.90;;;;;;7186617;19;2004527;-89
2023/09/21 09:35:38;;;;;;;5.33;1.60;;;19.20;99.90;;;;;;7290076;19;20197;-88
2023/09/21 09:38:23;;;;;;;5.97;2.00;;;19.30;99.90;;;;;;7284860;19;20188;-88
2023/09/21 09:41:11;;;;;;;4.80;1.93;;;19.40;99.90;;;;;;7288375;19;20200;-90
2023/09/21 09:43:56;;;;;;;5.87;2.33;;;19.40;99.90;;;;;;7283778;19;20205;-89
2023/09/21 09:46:41;;;;;;;5.67;2.30;;;19.60;99.90;;;;;;7289754;19;20198;-90
2023/09/21 09:49:29;;;;;;;4.60;2.10;;;19.70;99.90;;;;;;7288376;19;20196;-89
2023/09/21 09:52:04;;;;;;;6.30;2.50;;;19.70;99.90;;;;;;7186558;19;2004372;-91
2023/09/21 09:55:14;;;;;;;5.83;1.97;;;19.70;99.90;;;;;;7206210;19;2004547;-89
2023/09/21 09:57:45;;;;;;;9.90;2.10;;;19.80;99.90;;;;;;7265233;19;20194;-89
2023/09/21 10:00:35;;;;;;;3.10;1.50;;;19.80;99.90;;;;;;7277046;19;20228;-89
2023/09/21 10:03:50;;;;;;;3.00;1.00;;;19.90;99.90;;;;;;7191095;19;2004685;-90
2023/09/21 10:06:38;;;;;;;2.53;0.87;;;19.90;99.90;;;;;;7211491;19;2004491;-90
2023/09/21 10:09:47;;;;;;;4.53;0.80;;;20.00;99.90;;;;;;7191950;19;2004599;-89
2023/09/21 10:13:04;;;;;;;2.67;0.60;;;20.20;99.90;;;;;;7189708;19;2004403;-90
2023/09/21 10:19:38;;;;;;;3.67;0.80;;;19.90;99.90;;;;;;7210224;19;2004445;-89
2023/09/21 10:22:28;;;;;;;2.23;0.50;;;19.90;99.90;;;;;;7189850;19;2004267;-87
2023/09/21 10:25:00;;;;;;;1.27;0.60;;;20.10;99.90;;;;;;7190508;19;2004417;-88
2023/09/21 10:28:09;;;;;;;2.20;0.53;;;20.20;99.90;;;;;;7291926;19;20203;-88
2023/09/21 10:30:50;;;;;;;1.50;0.43;;;20.30;99.90;;;;;;7192771;19;2004535;-89
2023/09/21 10:33:25;;;;;;;2.03;0.40;;;20.30;99.90;;;;;;7187910;19;2004161;-87
2023/09/21 10:36:17;;;;;;;3.00;0.50;;;20.40;99.90;;;;;;7294157;19;20205;-89
2023/09/21 10:39:10;;;;;;;2.50;0.50;;;20.40;99.90;;;;;;7192608;19;2004741;-89
2023/09/21 10:42:06;;;;;;;0.80;0.40;;;20.40;99.90;;;;;;7280366;19;20608;-88
2023/09/21 10:45:00;;;;;;;0.90;0.37;;;20.00;99.90;;;;;;7294070;19;20765;-88
2023/09/21 10:47:48;;;;;;;0.57;0.30;;;19.80;99.90;;;;;;7191599;19;2004146;-89
2023/09/21 10:50:16;;;;;;;1.60;0.40;;;19.70;99.90;;;;;;7192192;19;2004461;-87
2023/09/21 10:52:51;;;;;;;2.03;0.60;;;19.80;99.90;;;;;;7295430;19;20196;-88
2023/09/21 10:55:23;;;;;;;1.43;0.50;;;19.90;99.90;;;;;;7293340;19;20217;-89
2023/09/21 10:58:05;;;;;;;3.90;0.60;;;19.70;99.90;;;;;;7292287;19;20210;-89
2023/09/21 11:00:36;;;;;;;3.73;0.67;;;19.70;99.90;;;;;;7292417;19;20192;-88
2023/09/21 11:03:03;;;;;;;2.70;0.90;;;19.70;99.90;;;;;;7294712;19;20190;-88
2023/09/21 11:05:35;;;;;;;2.23;0.70;;;19.70;99.90;;;;;;7293581;19;20188;-87
2023/09/21 11:08:08;;;;;;;2.90;0.57;;;19.60;99.90;;;;;;7295378;19;20798;-88
2023/09/21 11:10:42;;;;;;;4.77;0.63;;;19.40;99.90;;;;;;7295523;19;20210;-88
2023/09/21 11:13:11;;;;;;;4.37;0.67;;;19.30;99.90;;;;;;7270943;19;20197;-89
2023/09/21 11:16:06;;;;;;;4.70;0.80;;;19.30;99.90;;;;;;7314382;19;20680;-89
2023/09/21 11:18:53;;;;;;;3.23;0.67;;;19.30;99.90;;;;;;7089749;19;2004419;-89
2023/09/21 11:21:36;;;;;;;2.50;0.70;;;19.30;99.90;;;;;;7293553;19;20197;-89
2023/09/21 11:24:15;;;;;;;2.90;0.93;;;19.20;99.90;;;;;;7291591;19;20294;-90
2023/09/21 11:27:03;;;;;;;6.80;1.00;;;19.20;99.90;;;;;;7188280;19;2004531;-89
2023/09/21 11:29:43;;;;;;;6.80;1.47;;;19.10;99.90;;;;;;7276727;19;20190;-89
2023/09/21 11:32:18;;;;;;;7.13;1.07;;;19.10;99.90;;;;;;7271430;19;20250;-88
2023/09/21 11:34:58;;;;;;;4.63;1.20;;;19.10;99.90;;;;;;7292148;19;20186;-89
2023/09/21 11:37:52;;;;;;;7.33;1.30;;;19.20;99.90;;;;;;7291091;19;20187;-90
2023/09/21 11:40:26;;;;;;;4.37;1.20;;;19.10;99.90;;;;;;7184760;19;2004242;-90
2023/09/21 11:43:05;;;;;;;3.90;1.23;;;19.10;99.90;;;;;;7289617;19;20185;-88
2023/09/21 11:45:34;;;;;;;4.63;1.20;;;19.10;99.90;;;;;;7290921;19;20232;-89
2023/09/21 11:48:06;;;;;;;10.27;1.50;;;19.00;99.90;;;;;;7290705;19;20185;-88
2023/09/21 11:50:46;;;;;;;6.10;1.60;;;19.00;99.90;;;;;;7292104;19;20229;-90
2023/09/21 11:53:33;;;;;;;7.80;1.50;;;19.00;99.90;;;;;;7186758;19;2004346;-89
2023/09/21 11:56:03;;;;;;;5.53;1.33;;;19.00;99.90;;;;;;7288504;19;20195;-90
2023/09/21 11:58:37;;;;;;;4.40;1.50;;;19.00;99.90;;;;;;7288637;19;20181;-89
2023/09/21 12:01:19;;;;;;;4.90;1.30;;;19.00;99.90;;;;;;7290050;19;20674;-89
2023/09/21 12:03:52;;;;;;;7.43;1.40;;;18.90;99.90;;;;;;7187371;19;2004624;-90
2023/09/21 12:06:20;;;;;;;8.57;1.53;;;18.90;99.90;;;;;;7289764;19;20191;-90
2023/09/21 12:08:51;;;;;;;3.97;1.37;;;18.90;99.90;;;;;;7288539;19;20193;-90
2023/09/21 12:11:25;;;;;;;3.93;1.13;;;18.70;99.90;;;;;;7288582;19;20208;-89
2023/09/21 12:14:00;;;;;;;5.00;1.10;;;18.70;99.90;;;;;;7289302;19;20539;-89
2023/09/21 12:16:32;;;;;;;4.33;1.20;;;18.70;99.90;;;;;;7289176;19;20195;-89
2023/09/21 12:19:04;;;;;;;5.33;1.60;;;18.80;99.90;;;;;;7287948;19;20579;-89
2023/09/21 12:21:42;;;;;;;4.10;1.30;;;18.80;99.90;;;;;;7287784;19;20205;-90
2023/09/21 12:24:12;;;;;;;6.43;1.53;;;18.80;99.90;;;;;;7182927;19;2004593;-89
2023/09/21 12:26:41;;;;;;;5.50;1.47;;;18.70;99.90;;;;;;7288844;19;20188;-89
2023/09/21 12:29:22;;;;;;;3.70;1.13;;;18.70;99.90;;;;;;7296995;19;20570;-87
2023/09/21 12:31:52;;;;;;;4.13;1.23;;;18.80;99.90;;;;;;7288953;19;20192;-87
2023/09/21 12:34:37;;;;;;;10.23;1.60;;;18.90;99.90;;;;;;7289145;19;20198;-88
2023/09/21 12:37:11;;;;;;;5.93;1.23;;;19.00;99.90;;;;;;7284515;19;20245;-88
2023/09/21 12:39:50;;;;;;;4.90;1.40;;;19.20;99.90;;;;;;7287819;19;20337;-88
2023/09/21 12:42:36;;;;;;;3.87;1.20;;;19.20;99.90;;;;;;7288480;19;20185;-88
2023/09/21 12:45:14;;;;;;;4.13;1.13;;;19.30;99.90;;;;;;7286119;19;20197;-89
2023/09/21 12:47:47;;;;;;;3.23;1.23;;;19.30;99.90;;;;;;7185268;19;2004368;-89
2023/09/21 12:50:25;;;;;;;5.43;1.10;;;19.30;99.90;;;;;;7289454;19;20181;-89
2023/09/21 12:52:59;;;;;;;3.87;1.10;;;19.40;99.90;;;;;;7287261;19;20663;-88
2023/09/21 12:55:36;;;;;;;5.50;1.07;;;19.40;99.90;;;;;;7289127;19;20194;-89
2023/09/21 12:58:06;;;;;;;10.30;1.77;;;19.30;99.90;;;;;;7288236;19;20196;-88
2023/09/21 13:00:33;;;;;;;4.90;1.30;;;19.40;99.90;;;;;;7288334;19;20229;-89
2023/09/21 13:03:04;;;;;;;3.20;1.00;;;19.50;99.90;;;;;;7288020;19;20320;-87
2023/09/21 13:05:36;;;;;;;3.83;1.00;;;19.60;99.90;;;;;;7288979;19;20194;-87
2023/09/21 13:08:06;;;;;;;4.77;1.10;;;19.60;99.90;;;;;;7287723;19;20185;-87
2023/09/21 13:10:32;;;;;;;4.57;1.20;;;19.60;99.90;;;;;;7285530;19;20196;-88
2023/09/21 13:13:01;;;;;;;5.27;1.07;;;19.40;99.90;;;;;;7285268;19;20214;-88
2023/09/21 13:15:29;;;;;;;6.87;0.90;;;19.30;99.90;;;;;;7285874;19;20604;-88
2023/09/21 13:17:58;;;;;;;5.30;1.00;;;19.20;99.90;;;;;;7286970;19;20188;-88
2023/09/21 13:20:27;;;;;;;3.33;0.73;;;19.10;99.90;;;;;;7286082;19;20193;-88
2023/09/21 13:23:05;;;;;;;2.87;1.00;;;19.00;99.90;;;;;;7286472;19;20196;-90
2023/09/21 13:25:36;;;;;;;3.70;0.90;;;19.00;99.90;;;;;;7286486;19;20201;-89
2023/09/21 13:28:44;;;;;;;3.77;0.90;;;19.00;99.90;;;;;;7287254;19;20185;-89
2023/09/21 13:34:44;;;;;;;;;;;;;;;;;;;;;
2023/09/21 13:41:31;;;;;;;4.97;1.03;;;18.20;99.90;;;;;;6976541;19;2004427;-88
2023/09/21 13:44:11;;;;;;;5.40;1.10;;;18.20;99.90;;;;;;7183028;19;2004146;-88
2023/09/21 13:47:04;;;;;;;7.90;1.70;;;18.20;99.90;;;;;;7181254;19;2020267;-88
2023/09/21 13:53:13;;;;;;;;;;;;;;;;;;;;;
2023/09/21 13:55:59;;;;;;;4.73;1.40;;;18.20;99.90;;;;;;7305735;19;20266;-89
2023/09/21 13:58:44;;;;;;;;;;;;;;;;;;;;;
2023/09/21 14:01:31;;;;;;;5.60;1.40;;;18.30;99.90;;;;;;7274838;19;20193;-87
2023/09/21 14:04:04;;;;;;;6.70;1.57;;;18.30;99.90;;;;;;7287047;19;20218;-86
2023/09/21 14:06:49;;;;;;;6.53;1.63;;;18.20;99.90;;;;;;7287595;19;20198;-88
2023/09/21 14:09:30;;;;;;;5.20;1.60;;;18.10;99.90;;;;;;7178582;19;2004461;-88
2023/09/21 14:11:59;;;;;;;4.80;1.50;;;18.00;99.90;;;;;;7294089;19;20192;-89
2023/09/21 14:14:34;;;;;;;5.30;1.60;;;18.00;99.90;;;;;;7288035;19;20200;-88
2023/09/21 14:17:28;;;;;;;4.33;1.33;;;17.90;99.90;;;;;;7288592;19;20195;-88
2023/09/21 14:20:13;;;;;;;3.77;1.20;;;17.80;99.90;;;;;;7082309;19;2004410;-88
2023/09/21 14:22:39;;;;;;;6.30;1.73;;;17.70;99.90;;;;;;7288097;19;20226;-88
2023/09/21 14:25:17;;;;;;;5.57;1.50;;;17.80;99.90;;;;;;7308816;19;20189;-88
2023/09/21 14:27:46;;;;;;;5.63;1.73;;;17.80;99.90;;;;;;7183184;19;2004514;-87
2023/09/21 14:30:15;;;;;;;7.63;2.90;;;17.90;99.90;;;;;;7285338;19;20625;-88
2023/09/21 14:32:54;;;;;;;5.53;1.87;;;18.00;99.90;;;;;;7287161;19;20193;-89
2023/09/21 14:35:25;;;;;;;7.80;2.10;;;18.10;99.90;;;;;;7285547;19;20188;-88
2023/09/21 14:37:57;;;;;;;4.53;1.50;;;18.20;99.90;;;;;;7285151;19;20581;-89
2023/09/21 14:40:36;;;;;;;4.73;1.60;;;18.20;99.90;;;;;;7286960;19;20196;-89
2023/09/21 14:43:52;;;;;;;5.73;1.80;;;18.40;99.90;;;;;;7225212;19;2004394;-89
2023/09/21 14:46:45;;;;;;;5.40;1.50;;;18.40;99.90;;;;;;7206048;19;2004380;-90
2023/09/21 14:49:48;;;;;;;4.97;1.73;;;18.50;99.90;;;;;;7191817;19;2004276;-90
2023/09/21 14:52:33;;;;;;;7.47;1.77;;;18.60;99.90;;;;;;7192198;19;2004415;-86
2023/09/21 14:54:59;;;;;;;6.53;2.30;;;18.80;99.90;;;;;;7290644;19;20210;-88
2023/09/21 14:57:25;;;;;;;6.87;2.23;;;18.90;99.90;;;;;;7312622;19;20531;-89
2023/09/21 15:00:04;;;;;;;4.47;2.00;;;18.90;99.90;;;;;;7287267;19;20216;-89
2023/09/21 15:02:37;;;;;;;6.00;1.83;;;19.00;99.90;;;;;;7314081;19;20192;-87
2023/09/21 15:05:54;;;;;;;;;;;;;;;;;;;;;
2023/09/21 15:08:48;;;;;;;3.80;1.97;;;18.80;99.90;;;;;;7133734;19;2004502;-90
2023/09/21 15:11:17;;;;;;;5.90;1.70;;;18.80;99.90;;;;;;7291425;19;20193;-88
2023/09/21 15:17:00;;;;;;;4.40;1.30;;;18.60;99.90;;;;;;7297331;19;20195;-91
2023/09/21 15:19:53;;;;;;;6.83;1.13;;;18.50;99.90;;;;;;7293879;19;20195;-90
2023/09/21 15:29:33;;;;;;;3.90;1.30;;;18.10;99.90;;;;;;7090155;19;2004524;-90
2023/09/21 15:32:52;;;;;;;5.13;1.30;;;17.90;99.90;;;;;;7188166;19;2004371;-90
2023/09/21 15:35:41;;;;;;;4.57;1.30;;;17.70;99.90;;;;;;7084310;19;2004507;-88
2023/09/21 15:38:22;;;;;;;3.33;1.20;;;17.80;99.90;;;;;;7187503;19;2004561;-89
2023/09/21 15:40:51;;;;;;;4.87;1.57;;;17.80;99.90;;;;;;7311526;19;20195;-88
2023/09/21 15:43:22;;;;;;;5.03;1.30;;;17.90;99.90;;;;;;7289805;19;20207;-88